Time;durP1;ratioP1;P1;durP2;ratioP2;P2;SDS_P1;SDS_P2;PMS_P1;PMS_P2;Temp;Humidity;BMP_temperature;BMP_pressure;BME280_temperature;BME280_humidity;BME280_pressure;Samples;Min_cycle;Max_cycle;Signal;HPM_P1;HPM_P2
2022/11/14 00:01:23;;;;;;;;;;;8.40;99.90;;;;;;5081648;28;20318;-62
2022/11/14 00:03:51;;;;;;;;;;;8.20;99.90;;;;;;5073842;28;19968;-61
2022/11/14 00:06:18;;;;;;;;;;;8.10;99.90;;;;;;5074244;28;20064;-62
2022/11/14 00:08:46;;;;;;;;;;;8.00;99.90;;;;;;5081000;28;20441;-62
2022/11/14 00:11:14;;;;;;;;;;;8.00;99.90;;;;;;5075531;28;19970;-62
2022/11/14 00:13:42;;;;;;;;;;;8.10;99.90;;;;;;5082247;28;19970;-60
2022/11/14 00:16:09;;;;;;;;;;;8.20;99.90;;;;;;5076652;28;19972;-62
2022/11/14 00:18:38;;;;;;;;;;;8.00;99.90;;;;;;5070208;28;19964;-62
2022/11/14 00:21:06;;;;;;;;;;;8.00;99.90;;;;;;5072715;28;20058;-62
2022/11/14 00:23:34;;;;;;;;;;;8.10;99.90;;;;;;5074329;28;20360;-63
2022/11/14 00:26:01;;;;;;;;;;;8.10;99.90;;;;;;5073099;28;19970;-62
2022/11/14 00:28:29;;;;;;;;;;;8.10;99.90;;;;;;5074400;28;20401;-63
2022/11/14 00:30:57;;;;;;;;;;;8.20;99.90;;;;;;5068031;28;19964;-63
2022/11/14 00:33:25;;;;;;;;;;;8.20;99.90;;;;;;5076553;28;20449;-62
2022/11/14 00:35:55;;;;;;;;;;;8.00;99.90;;;;;;5075648;28;19978;-63
2022/11/14 00:38:23;;;;;;;;;;;7.90;99.90;;;;;;5077513;28;19974;-63
2022/11/14 00:40:51;;;;;;;;;;;8.00;99.90;;;;;;5072848;28;20111;-63
2022/11/14 00:43:19;;;;;;;;;;;8.10;99.90;;;;;;5075562;28;19968;-63
2022/11/14 00:45:47;;;;;;;;;;;8.00;99.90;;;;;;5087915;28;19974;-63
2022/11/14 00:48:15;;;;;;;;;;;8.00;99.90;;;;;;5080810;28;20387;-63
2022/11/14 00:50:43;;;;;;;;;;;8.10;99.90;;;;;;5072723;28;19972;-63
2022/11/14 00:53:12;;;;;;;;;;;8.20;99.90;;;;;;5071908;28;19964;-63
2022/11/14 00:55:40;;;;;;;;;;;8.20;99.90;;;;;;5069501;28;20062;-62
2022/11/14 00:58:08;;;;;;;;;;;8.30;99.90;;;;;;5073019;28;20339;-62
2022/11/14 01:00:36;;;;;;;;;;;8.30;99.90;;;;;;5086192;28;19975;-62
2022/11/14 01:03:04;;;;;;;;;;;8.00;99.90;;;;;;5079621;28;20611;-62
2022/11/14 01:05:31;;;;;;;;;;;7.90;99.90;;;;;;5083506;28;19974;-62
2022/11/14 01:07:59;;;;;;;;;;;7.90;99.90;;;;;;5093267;28;19978;-63
2022/11/14 01:10:28;;;;;;;;;;;7.90;99.90;;;;;;5074219;28;20054;-63
2022/11/14 01:12:56;;;;;;;;;;;7.90;99.90;;;;;;5072560;28;20367;-62
2022/11/14 01:15:24;;;;;;;;;;;8.00;99.90;;;;;;5072443;28;20436;-63
2022/11/14 01:17:52;;;;;;;;;;;7.90;99.90;;;;;;5072727;28;19974;-62
2022/11/14 01:20:19;;;;;;;;;;;7.70;99.90;;;;;;5071930;28;19971;-63
2022/11/14 01:22:47;;;;;;;;;;;7.70;99.90;;;;;;5072512;28;19967;-63
2022/11/14 01:25:15;;;;;;;;;;;7.70;99.90;;;;;;5072396;28;19974;-62
2022/11/14 01:27:44;;;;;;;;;;;7.70;99.90;;;;;;5072354;28;19982;-62
2022/11/14 01:30:12;;;;;;;;;;;7.70;99.90;;;;;;5063231;28;20509;-62
2022/11/14 01:32:40;;;;;;;;;;;7.60;99.90;;;;;;5072353;28;19974;-61
2022/11/14 01:35:08;;;;;;;;;;;7.60;99.90;;;;;;5071773;28;19968;-62
2022/11/14 01:37:35;;;;;;;;;;;7.70;99.90;;;;;;5072331;28;19978;-62
2022/11/14 01:40:03;;;;;;;;;;;7.70;99.90;;;;;;5071527;28;19968;-62
2022/11/14 01:45:43;;;;;;;;;;;7.60;99.90;;;;;;5008753;28;19975;-62
2022/11/14 01:48:17;;;;;;;;;;;7.50;99.90;;;;;;4992961;28;19976;-62
2022/11/14 01:50:45;;;;;;;;;;;7.60;99.90;;;;;;4992321;28;19979;-64
2022/11/14 01:53:13;;;;;;;;;;;7.50;99.90;;;;;;4993271;28;20374;-64
2022/11/14 01:55:41;;;;;;;;;;;7.50;99.90;;;;;;4992703;28;19973;-64
2022/11/14 01:58:09;;;;;;;;;;;7.50;99.90;;;;;;5001808;28;19971;-64
2022/11/14 02:00:37;;;;;;;;;;;7.50;99.90;;;;;;5011593;28;19964;-64
2022/11/14 02:03:04;;;;;;;;;;;7.30;99.90;;;;;;5012342;28;19979;-64
2022/11/14 02:05:34;;;;;;;;;;;7.30;99.90;;;;;;5012200;28;19969;-64
2022/11/14 02:08:02;;;;;;;;;;;7.10;99.90;;;;;;5012090;28;19976;-65
2022/11/14 02:10:30;;;;;;;;;;;7.10;99.90;;;;;;5008236;28;19969;-64
2022/11/14 02:12:58;;;;;;;;;;;7.10;99.90;;;;;;5011344;28;19971;-64
2022/11/14 02:15:26;;;;;;;;;;;7.10;99.90;;;;;;5010892;28;20298;-65
2022/11/14 02:17:55;;;;;;;;;;;7.10;99.90;;;;;;5011400;28;19965;-64
2022/11/14 02:20:27;;;;;;;;;;;7.00;99.90;;;;;;5010505;28;20434;-65
2022/11/14 02:22:55;;;;;;;;;;;7.00;99.90;;;;;;5009586;28;19987;-64
2022/11/14 02:25:22;;;;;;;;;;;7.00;99.90;;;;;;5011009;28;20429;-64
2022/11/14 02:27:50;;;;;;;;;;;6.90;99.90;;;;;;5011113;28;20063;-64
2022/11/14 02:30:20;;;;;;;;;;;6.90;99.90;;;;;;5008951;28;20422;-65
2022/11/14 02:32:48;;;;;;;;;;;6.80;99.90;;;;;;5004562;28;20496;-65
2022/11/14 02:35:37;;;;;;;;;;;6.40;99.90;;;;;;5010787;28;19964;-65
2022/11/14 02:38:05;;;;;;;;;;;6.20;99.90;;;;;;5009988;28;20343;-65
2022/11/14 02:40:33;;;;;;;;;;;6.30;99.90;;;;;;5009623;28;19983;-65
2022/11/14 02:43:00;;;;;;;;;;;6.40;99.90;;;;;;5010800;28;19965;-64
2022/11/14 02:45:28;;;;;;;;;;;6.50;99.90;;;;;;5010849;28;20059;-65
2022/11/14 02:47:56;;;;;;;;;;;6.50;99.90;;;;;;5011142;28;19971;-65
2022/11/14 02:50:24;;;;;;;;;;;6.50;99.90;;;;;;5008838;28;19976;-65
2022/11/14 02:52:53;;;;;;;;;;;6.50;99.90;;;;;;5010522;28;20072;-64
2022/11/14 02:55:21;;;;;;;;;;;6.50;99.90;;;;;;5013113;28;20060;-64
2022/11/14 02:57:49;;;;;;;;;;;6.50;99.90;;;;;;5014916;28;19973;-64
2022/11/14 03:00:17;;;;;;;;;;;6.60;99.90;;;;;;5012099;28;19979;-65
2022/11/14 03:02:45;;;;;;;;;;;6.60;99.90;;;;;;5014421;28;20344;-64
2022/11/14 03:05:13;;;;;;;;;;;6.60;99.90;;;;;;5013688;28;19965;-65
2022/11/14 03:07:41;;;;;;;;;;;6.60;99.90;;;;;;5012024;28;20056;-64
2022/11/14 03:10:10;;;;;;;;;;;6.40;99.90;;;;;;5013390;28;20440;-65
2022/11/14 03:12:38;;;;;;;;;;;6.30;99.90;;;;;;5011670;28;19965;-64
2022/11/14 03:15:06;;;;;;;;;;;6.30;99.90;;;;;;5014411;28;19976;-64
2022/11/14 03:17:34;;;;;;;;;;;6.40;99.90;;;;;;5012227;28;19965;-65
2022/11/14 03:20:02;;;;;;;;;;;6.40;99.90;;;;;;5014492;28;20047;-65
2022/11/14 03:22:30;;;;;;;;;;;6.50;99.90;;;;;;5014544;28;20348;-65
2022/11/14 03:24:57;;;;;;;;;;;6.50;99.90;;;;;;5012488;28;19971;-65
2022/11/14 03:27:26;;;;;;;;;;;6.50;99.90;;;;;;5013455;28;19969;-65
2022/11/14 03:29:54;;;;;;;;;;;6.50;99.90;;;;;;5014250;28;19976;-64
2022/11/14 03:32:22;;;;;;;;;;;6.50;99.90;;;;;;5015108;28;19979;-65
2022/11/14 03:34:50;;;;;;;;;;;6.50;99.90;;;;;;5014699;28;19971;-65
2022/11/14 03:37:17;;;;;;;;;;;6.40;99.90;;;;;;5013507;28;19975;-65
2022/11/14 03:39:45;;;;;;;;;;;6.30;99.90;;;;;;5013503;28;20004;-65
2022/11/14 03:42:13;;;;;;;;;;;6.40;99.90;;;;;;5013709;28;19969;-65
2022/11/14 03:44:42;;;;;;;;;;;6.40;99.90;;;;;;5013237;28;19971;-66
2022/11/14 03:47:10;;;;;;;;;;;6.40;99.90;;;;;;5014860;28;19969;-64
2022/11/14 03:49:37;;;;;;;;;;;6.30;99.90;;;;;;5014173;28;19973;-64
2022/11/14 03:52:05;;;;;;;;;;;6.40;99.90;;;;;;5015423;28;19975;-65
2022/11/14 03:54:33;;;;;;;;;;;6.40;99.90;;;;;;5014556;28;19969;-64
2022/11/14 03:57:00;;;;;;;;;;;6.40;99.90;;;;;;5014694;28;19979;-64
2022/11/14 03:59:28;;;;;;;;;;;6.40;99.90;;;;;;5014069;28;19969;-65
2022/11/14 04:01:57;;;;;;;;;;;6.40;99.90;;;;;;5014322;28;20059;-65
2022/11/14 04:04:25;;;;;;;;;;;6.30;99.90;;;;;;5014544;28;19981;-65
2022/11/14 04:06:53;;;;;;;;;;;6.30;99.90;;;;;;5013371;28;19969;-65
2022/11/14 04:09:20;;;;;;;;;;;6.20;99.90;;;;;;5014368;28;20008;-65
2022/11/14 04:11:48;;;;;;;;;;;6.20;99.90;;;;;;5013788;28;19969;-65
2022/11/14 04:14:16;;;;;;;;;;;6.30;99.90;;;;;;5014208;28;19969;-64
2022/11/14 04:16:43;;;;;;;;;;;6.30;99.90;;;;;;5010041;28;19969;-65
2022/11/14 04:19:12;;;;;;;;;;;6.40;99.90;;;;;;5011564;28;19964;-64
2022/11/14 04:21:40;;;;;;;;;;;6.30;99.90;;;;;;5004742;28;20360;-64
2022/11/14 04:24:08;;;;;;;;;;;6.40;99.90;;;;;;5013113;28;20048;-64
2022/11/14 04:26:38;;;;;;;;;;;6.40;99.90;;;;;;5013396;28;19968;-65
2022/11/14 04:29:05;;;;;;;;;;;6.40;99.90;;;;;;5013307;28;19968;-64
2022/11/14 04:31:33;;;;;;;;;;;6.40;99.90;;;;;;5013394;28;20029;-64
2022/11/14 04:34:01;;;;;;;;;;;6.20;99.90;;;;;;5012920;28;19965;-65
2022/11/14 04:36:30;;;;;;;;;;;6.20;99.90;;;;;;5012616;28;19987;-64
2022/11/14 04:38:58;;;;;;;;;;;6.10;99.90;;;;;;5013137;28;20441;-65
2022/11/14 04:41:25;;;;;;;;;;;6.20;99.90;;;;;;5012004;28;20365;-65
2022/11/14 04:43:53;;;;;;;;;;;6.30;99.90;;;;;;5012598;28;19965;-64
2022/11/14 04:46:21;;;;;;;;;;;6.30;99.90;;;;;;5012329;28;19969;-65
2022/11/14 04:48:48;;;;;;;;;;;6.40;99.90;;;;;;5013047;28;19965;-64
2022/11/14 04:51:16;;;;;;;;;;;6.50;99.90;;;;;;5012158;28;19973;-64
2022/11/14 04:53:45;;;;;;;;;;;6.50;99.90;;;;;;5011843;28;19973;-64
2022/11/14 04:56:13;;;;;;;;;;;6.60;99.90;;;;;;5012650;28;19972;-65
2022/11/14 04:58:41;;;;;;;;;;;6.70;99.90;;;;;;5012429;28;20064;-64
2022/11/14 05:01:09;;;;;;;;;;;6.90;99.90;;;;;;5011989;28;19975;-65
2022/11/14 05:03:37;;;;;;;;;;;6.80;99.90;;;;;;5012374;28;19965;-65
2022/11/14 05:06:05;;;;;;;;;;;6.90;99.90;;;;;;5012112;28;19966;-65
2022/11/14 05:08:32;;;;;;;;;;;6.90;99.90;;;;;;5013260;28;19975;-65
2022/11/14 05:11:01;;;;;;;;;;;6.80;99.90;;;;;;5012603;28;19971;-65
2022/11/14 05:13:29;;;;;;;;;;;6.80;99.90;;;;;;5012796;28;19972;-64
2022/11/14 05:15:58;;;;;;;;;;;6.80;99.90;;;;;;5012952;28;19975;-65
2022/11/14 05:18:26;;;;;;;;;;;6.70;99.90;;;;;;5012081;28;20064;-65
2022/11/14 05:20:57;;;;;;;;;;;6.80;99.90;;;;;;5009826;28;19969;-65
2022/11/14 05:23:25;;;;;;;;;;;6.80;99.90;;;;;;5010693;28;20055;-65
2022/11/14 05:25:58;;;;;;;;;;;6.60;99.90;;;;;;5012005;28;19965;-65
2022/11/14 05:28:28;;;;;;;;;;;6.70;99.90;;;;;;5010682;28;19983;-65
2022/11/14 05:31:00;;;;;;;;;;;6.70;99.90;;;;;;5010644;28;20019;-65
2022/11/14 05:33:28;;;;;;;;;;;6.90;99.90;;;;;;5011919;28;19991;-65
2022/11/14 05:35:55;;;;;;;;;;;7.00;99.90;;;;;;5011716;28;19969;-65
2022/11/14 05:38:23;;;;;;;;;;;7.00;99.90;;;;;;5011284;28;19975;-65
2022/11/14 05:40:51;;;;;;;;;;;7.00;99.90;;;;;;5010113;28;19964;-65
2022/11/14 05:43:19;;;;;;;;;;;7.10;99.90;;;;;;5010773;28;20414;-65
2022/11/14 05:45:48;;;;;;;;;;;7.00;99.90;;;;;;5010768;28;19971;-65
2022/11/14 05:48:15;;;;;;;;;;;7.20;99.90;;;;;;5011247;28;19972;-65
2022/11/14 05:50:43;;;;;;;;;;;7.30;99.90;;;;;;5013996;28;19984;-65
2022/11/14 05:53:11;;;;;;;;;;;7.20;99.90;;;;;;5012472;28;19973;-65
2022/11/14 05:55:38;;;;;;;;;;;7.20;99.90;;;;;;5011027;28;19976;-65
2022/11/14 05:58:06;;;;;;;;;;;7.20;99.90;;;;;;5016902;28;20408;-65
2022/11/14 06:00:34;;;;;;;;;;;7.30;99.90;;;;;;5013218;28;20640;-65
2022/11/14 06:03:14;;;;;;;;;;;7.40;99.90;;;;;;5013417;28;19965;-64
2022/11/14 06:05:42;;;;;;;;;;;7.40;99.90;;;;;;5011132;28;19969;-64
2022/11/14 06:08:10;;;;;;;;;;;7.50;99.90;;;;;;5016232;28;19965;-64
2022/11/14 06:10:38;;;;;;;;;;;7.60;99.90;;;;;;5010381;28;19965;-64
2022/11/14 06:13:05;;;;;;;;;;;7.50;99.90;;;;;;5017366;28;20459;-64
2022/11/14 06:15:33;;;;;;;;;;;7.70;99.90;;;;;;5010175;28;19999;-64
2022/11/14 06:18:01;;;;;;;;;;;7.80;99.90;;;;;;4998653;28;19973;-64
2022/11/14 06:20:30;;;;;;;;;;;7.50;99.90;;;;;;4998763;28;19976;-64
2022/11/14 06:22:58;;;;;;;;;;;7.30;99.90;;;;;;4999139;28;19980;-64
2022/11/14 06:25:25;;;;;;;;;;;7.00;99.90;;;;;;4999695;28;20336;-64
2022/11/14 06:27:53;;;;;;;;;;;6.80;99.90;;;;;;4995032;28;19968;-65
2022/11/14 06:30:21;;;;;;;;;;;6.60;99.90;;;;;;4999513;28;19969;-64
2022/11/14 06:32:49;;;;;;;;;;;6.50;99.90;;;;;;4999952;28;19965;-64
2022/11/14 06:35:16;;;;;;;;;;;6.50;99.90;;;;;;5000781;28;19977;-64
2022/11/14 06:37:45;;;;;;;;;;;6.40;99.90;;;;;;4997292;28;20639;-64
2022/11/14 06:40:13;;;;;;;;;;;6.20;99.90;;;;;;5000232;28;20561;-64
2022/11/14 06:42:41;;;;;;;;;;;6.00;99.90;;;;;;4999291;28;19979;-65
2022/11/14 06:45:09;;;;;;;;;;;5.90;99.90;;;;;;4999868;28;19979;-64
2022/11/14 06:47:37;;;;;;;;;;;5.90;99.90;;;;;;4998249;28;19980;-64
2022/11/14 06:50:05;;;;;;;;;;;5.90;99.90;;;;;;4999764;28;19973;-64
2022/11/14 06:52:32;;;;;;;;;;;5.90;99.90;;;;;;5000316;28;19980;-64
2022/11/14 06:55:02;;;;;;;;;;;5.80;99.90;;;;;;4999793;28;19979;-64
2022/11/14 06:57:29;;;;;;;;;;;5.80;99.90;;;;;;4998015;28;19976;-64
2022/11/14 06:59:57;;;;;;;;;;;5.80;99.90;;;;;;4999406;28;19972;-64
2022/11/14 07:02:25;;;;;;;;;;;5.70;99.90;;;;;;4999936;28;20493;-64
2022/11/14 07:04:52;;;;;;;;;;;5.70;99.90;;;;;;5000501;28;19969;-64
2022/11/14 07:07:20;;;;;;;;;;;5.80;99.90;;;;;;4998418;28;19969;-64
2022/11/14 07:09:48;;;;;;;;;;;5.70;99.90;;;;;;4999399;28;20357;-64
2022/11/14 07:12:17;;;;;;;;;;;5.70;99.90;;;;;;4998940;28;19973;-64
2022/11/14 07:14:45;;;;;;;;;;;5.70;99.90;;;;;;4998110;28;19977;-64
2022/11/14 07:17:12;;;;;;;;;;;5.80;99.90;;;;;;4999101;28;19969;-64
2022/11/14 07:19:40;;;;;;;;;;;5.80;99.90;;;;;;4996168;28;19973;-64
2022/11/14 07:22:08;;;;;;;;;;;5.80;99.90;;;;;;4998961;28;19975;-64
2022/11/14 07:24:36;;;;;;;;;;;5.80;99.90;;;;;;5000047;28;19979;-64
2022/11/14 07:27:07;;;;;;;;;;;5.80;99.90;;;;;;5001726;28;19965;-64
2022/11/14 07:29:36;;;;;;;;;;;5.90;99.90;;;;;;5006869;28;20434;-64
2022/11/14 07:32:04;;;;;;;;;;;5.80;99.90;;;;;;5010962;28;19971;-64
2022/11/14 07:34:32;;;;;;;;;;;5.80;99.90;;;;;;5010967;28;19975;-64
2022/11/14 07:37:00;;;;;;;;;;;5.80;99.90;;;;;;5011183;28;20062;-64
2022/11/14 07:39:27;;;;;;;;;;;5.80;99.90;;;;;;5011498;28;20396;-64
2022/11/14 07:41:55;;;;;;;;;;;5.80;99.90;;;;;;5012559;28;19980;-64
2022/11/14 07:44:23;;;;;;;;;;;5.90;99.90;;;;;;5058638;22;20075;-63
2022/11/14 07:46:52;;;;;;;;;;;5.80;99.90;;;;;;5054117;28;19964;-62
2022/11/14 07:49:20;;;;;;;;;;;5.80;99.90;;;;;;5051784;28;20069;-63
2022/11/14 07:51:47;;;;;;;;;;;5.80;99.90;;;;;;5053542;28;19972;-62
2022/11/14 07:54:15;;;;;;;;;;;5.70;99.90;;;;;;5054325;28;20361;-62
2022/11/14 07:56:43;;;;;;;;;;;5.80;99.90;;;;;;5054265;28;19968;-62
2022/11/14 07:59:10;;;;;;;;;;;5.80;99.90;;;;;;5054492;28;19968;-62
2022/11/14 08:01:38;;;;;;;;;;;5.80;99.90;;;;;;5053630;28;20367;-62
2022/11/14 08:04:07;;;;;;;;;;;5.80;99.90;;;;;;5053867;28;20066;-62
2022/11/14 08:06:35;;;;;;;;;;;5.80;99.90;;;;;;5053940;28;20402;-62
2022/11/14 08:09:03;;;;;;;;;;;5.80;99.90;;;;;;5054013;28;20348;-63
2022/11/14 08:11:49;;;;;;;;;;;5.90;99.90;;;;;;5053285;28;20318;-62
2022/11/14 08:14:16;;;;;;;;;;;5.90;99.90;;;;;;5054215;28;19980;-62
2022/11/14 08:16:44;;;;;;;;;;;6.00;99.90;;;;;;5053594;28;19972;-62
2022/11/14 08:19:15;;;;;;;;;;;6.00;99.90;;;;;;5053686;28;19964;-63
2022/11/14 08:21:43;;;;;;;;;;;6.10;99.90;;;;;;5053270;28;19968;-62
2022/11/14 08:24:11;;;;;;;;;;;6.10;99.90;;;;;;5053701;28;19995;-63
2022/11/14 08:26:38;;;;;;;;;;;6.10;99.90;;;;;;5052098;28;20363;-62
2022/11/14 08:29:09;;;;;;;;;;;6.10;99.90;;;;;;5041892;28;20131;-62
2022/11/14 08:31:37;;;;;;;;;;;6.10;99.90;;;;;;5032515;28;19973;-62
2022/11/14 08:34:04;;;;;;;;;;;6.10;99.90;;;;;;5067702;28;19974;-63
2022/11/14 08:36:33;;;;;;;;;;;6.00;99.90;;;;;;5073073;28;19967;-63
2022/11/14 08:39:01;;;;;;;;;;;6.00;99.90;;;;;;5072501;28;19968;-62
2022/11/14 08:41:29;;;;;;;;;;;6.00;99.90;;;;;;5051275;28;19972;-63
2022/11/14 08:43:57;;;;;;;;;;;6.10;99.90;;;;;;5032450;28;19975;-63
2022/11/14 08:46:24;;;;;;;;;;;6.10;99.90;;;;;;5066167;28;20495;-61
2022/11/14 08:48:52;;;;;;;;;;;6.10;99.90;;;;;;5055208;28;19964;-62
2022/11/14 08:51:20;;;;;;;;;;;6.20;99.90;;;;;;5051871;28;20063;-62
2022/11/14 08:53:51;;;;;;;;;;;6.20;99.90;;;;;;5052038;28;19967;-62
2022/11/14 08:56:18;;;;;;;;;;;6.20;99.90;;;;;;5052178;28;19972;-62
2022/11/14 08:58:46;;;;;;;;;;;6.20;99.90;;;;;;5051013;28;20026;-62
2022/11/14 09:01:14;;;;;;;;;;;6.30;99.90;;;;;;5051634;28;19978;-62
2022/11/14 09:03:42;;;;;;;;;;;6.30;99.90;;;;;;5052133;28;20067;-63
2022/11/14 09:06:10;;;;;;;;;;;6.30;99.90;;;;;;5052124;28;20555;-62
2022/11/14 09:08:37;;;;;;;;;;;6.30;99.90;;;;;;5051723;28;19975;-61
2022/11/14 09:11:06;;;;;;;;;;;6.30;99.90;;;;;;5051902;28;19972;-64
2022/11/14 09:13:37;;;;;;;;;;;6.40;99.90;;;;;;5051816;28;20453;-62
2022/11/14 09:16:05;;;;;;;;;;;6.40;99.90;;;;;;5044888;28;19979;-63
2022/11/14 09:18:32;;;;;;;;;;;6.40;99.90;;;;;;5045327;28;19979;-62
2022/11/14 09:21:01;;;;;;;;;;;6.40;99.90;;;;;;5050917;28;20059;-62
2022/11/14 09:23:29;;;;;;;;;;;6.40;99.90;;;;;;5051860;28;20429;-63
2022/11/14 09:25:57;;;;;;;;;;;6.40;99.90;;;;;;5051996;28;20456;-62
2022/11/14 09:28:26;;;;;;;;;;;6.50;99.90;;;;;;5051498;28;19976;-62
2022/11/14 09:30:59;;;;;;;;;;;6.50;99.90;;;;;;5050633;28;20128;-62
2022/11/14 09:33:27;;;;;;;;;;;6.60;99.90;;;;;;5041296;28;19972;-62
2022/11/14 09:35:58;;;;;;;;;;;6.70;99.90;;;;;;5031789;28;20067;-62
2022/11/14 09:38:26;;;;;;;;;;;6.70;99.90;;;;;;5031456;28;20335;-61
2022/11/14 09:41:00;;;;;;;;;;;6.80;99.90;;;;;;5031120;28;20071;-62
2022/11/14 09:43:47;;;;;;;;;;;6.90;99.90;;;;;;5031324;28;20067;-62
2022/11/14 09:46:18;;;;;;;;;;;7.00;99.90;;;;;;5031672;28;19972;-62
2022/11/14 09:48:46;;;;;;;;;;;7.10;99.90;;;;;;5046766;28;19971;-62
2022/11/14 09:51:15;;;;;;;;;;;7.20;99.90;;;;;;5050436;28;20319;-62
2022/11/14 09:53:47;;;;;;;;;;;7.50;99.90;;;;;;5051295;28;19979;-62
2022/11/14 09:56:19;;;;;;;;;;;7.70;99.90;;;;;;5051251;28;19964;-62
2022/11/14 09:58:48;;;;;;;;;;;7.70;99.90;;;;;;5050659;28;20459;-62
2022/11/14 10:01:21;;;;;;;;;;;7.70;99.90;;;;;;5050670;28;20438;-62
2022/11/14 10:03:51;;;;;;;;;;;7.80;99.90;;;;;;5050365;28;20382;-62
2022/11/14 10:06:24;;;;;;;;;;;7.90;99.90;;;;;;5050121;28;19975;-62
2022/11/14 10:09:04;;;;;;;;;;;7.90;99.90;;;;;;5031160;28;19968;-62
2022/11/14 10:11:35;;;;;;;;;;;7.90;99.90;;;;;;5030552;28;19975;-62
2022/11/14 10:14:12;;;;;;;;;;;7.90;99.90;;;;;;5031762;28;19998;-62
2022/11/14 10:16:44;;;;;;;;;;;7.90;99.90;;;;;;5031452;28;20083;-62
2022/11/14 10:19:16;;;;;;;;;;;7.90;99.90;;;;;;5049900;28;20503;-62
2022/11/14 10:21:51;;;;;;;;;;;7.90;99.90;;;;;;5051432;28;19968;-62
2022/11/14 10:24:28;;;;;;;;;;;7.80;99.90;;;;;;5041940;28;20022;-62
2022/11/14 10:27:00;;;;;;;;;;;7.80;99.90;;;;;;5031079;28;19979;-61
2022/11/14 10:29:37;;;;;;;;;;;7.80;99.90;;;;;;5030793;28;19969;-61
2022/11/14 10:32:10;;;;;;;;;;;8.10;99.90;;;;;;5031103;28;20509;-61
2022/11/14 10:34:42;;;;;;;;;;;8.10;99.90;;;;;;5031168;28;19972;-63
2022/11/14 10:37:14;;;;;;;;;;;8.20;99.90;;;;;;5031290;28;19973;-63
2022/11/14 10:39:44;;;;;;;;;;;8.20;99.90;;;;;;5030016;28;19968;-63
2022/11/14 10:42:14;;;;;;;;;;;8.20;99.90;;;;;;5047485;28;19978;-63
2022/11/14 10:44:43;;;;;;;;;;;8.20;99.90;;;;;;5050356;28;20417;-63
2022/11/14 10:47:14;;;;;;;;;;;8.20;99.90;;;;;;5050575;28;19972;-61
2022/11/14 10:49:42;;;;;;;;;;;8.10;99.90;;;;;;5042056;28;19971;-63
2022/11/14 10:52:12;;;;;;;;;;;8.20;99.90;;;;;;5051034;28;19972;-63
2022/11/14 10:54:42;;;;;;;;;;;8.30;99.90;;;;;;5050498;28;19969;-62
2022/11/14 10:57:14;;;;;;;;;;;8.30;99.90;;;;;;5050309;28;19986;-62
2022/11/14 10:59:42;;;;;;;;;;;8.50;99.90;;;;;;5030157;28;20441;-63
2022/11/14 11:02:11;;;;;;;;;;;8.90;99.90;;;;;;5030829;28;20410;-63
2022/11/14 11:04:40;;;;;;;;;;;9.20;99.90;;;;;;5030275;28;19969;-63
2022/11/14 11:13:04;;;;;;;;;;;10.50;99.90;;;;;;5050873;28;19972;-63
2022/11/14 11:15:39;;;;;;;;;;;10.50;99.90;;;;;;5040417;28;19972;-62
2022/11/14 11:18:24;;;;;;;;;;;10.40;99.90;;;;;;5048126;28;19964;-62
2022/11/14 11:21:02;;;;;;;;;;;10.30;99.90;;;;;;5052500;28;19964;-63
2022/11/14 11:23:29;;;;;;;;;;;10.30;99.90;;;;;;5036253;28;20626;-63
2022/11/14 11:26:04;;;;;;;;;;;10.30;99.90;;;;;;5054114;28;20450;-63
2022/11/14 11:28:32;;;;;;;;;;;10.40;99.90;;;;;;5054091;28;19979;-63
2022/11/14 11:31:01;;;;;;;;;;;10.50;99.90;;;;;;5053362;28;19964;-63
2022/11/14 11:33:30;;;;;;;;;;;10.30;99.90;;;;;;5035036;28;19969;-63
2022/11/14 11:36:00;;;;;;;;;;;10.10;99.90;;;;;;5038537;28;20425;-63
2022/11/14 11:38:28;;;;;;;;;;;9.90;99.90;;;;;;5053748;28;19975;-63
2022/11/14 11:41:00;;;;;;;;;;;9.80;99.90;;;;;;5053019;28;20471;-63
2022/11/14 11:43:31;;;;;;;;;;;9.70;99.90;;;;;;5053437;28;20360;-63
2022/11/14 11:46:10;;;;;;;;;;;10.10;99.90;;;;;;5053991;28;20453;-63
2022/11/14 11:48:39;;;;;;;;;;;10.90;99.90;;;;;;5052778;28;20451;-63
2022/11/14 11:51:16;;;;;;;;;;;11.70;99.90;;;;;;5052892;28;19968;-63
2022/11/14 11:53:46;;;;;;;;;;;12.30;99.90;;;;;;5053657;28;20409;-63
2022/11/14 11:56:15;;;;;;;;;;;12.80;99.90;;;;;;5053168;28;19968;-63
2022/11/14 11:58:45;;;;;;;;;;;13.30;99.90;;;;;;5052865;28;19971;-63
2022/11/14 12:01:14;;;;;;;;;;;13.50;99.90;;;;;;5052281;28;19991;-63
2022/11/14 12:03:46;;;;;;;;;;;13.60;99.90;;;;;;5053209;28;19972;-63
2022/11/14 12:06:15;;;;;;;;;;;13.40;99.90;;;;;;5044806;28;20400;-63
2022/11/14 12:08:48;;;;;;;;;;;13.50;99.90;;;;;;5033399;28;19976;-63
2022/11/14 12:11:18;;;;;;;;;;;13.60;99.90;;;;;;5032974;28;19979;-63
2022/11/14 12:13:58;;;;;;;;;;;13.20;99.90;;;;;;5048343;28;19968;-63
2022/11/14 12:16:35;;;;;;;;;;;12.80;99.90;;;;;;5053439;28;19972;-63
2022/11/14 12:19:21;;;;;;;;;;;12.30;99.90;;;;;;5052625;28;19964;-63
2022/11/14 12:22:01;;;;;;;;;;;11.80;99.90;;;;;;5032588;28;19968;-63
2022/11/14 12:24:41;;;;;;;;;;;11.30;99.90;;;;;;5033764;28;19980;-63
2022/11/14 12:27:15;;;;;;;;;;;10.90;99.90;;;;;;5032766;28;19979;-63
2022/11/14 12:29:56;;;;;;;;;;;10.70;99.90;;;;;;5048330;28;20011;-63
2022/11/14 12:32:28;;;;;;;;;;;10.60;99.90;;;;;;5053243;28;19972;-62
2022/11/14 12:34:56;;;;;;;;;;;10.50;99.90;;;;;;5052396;28;19964;-62
2022/11/14 12:37:30;;;;;;;;;;;10.30;99.90;;;;;;5053229;28;20428;-62
2022/11/14 12:39:59;;;;;;;;;;;10.20;99.90;;;;;;5045388;28;20533;-62
2022/11/14 12:42:27;;;;;;;;;;;10.10;99.90;;;;;;5034382;28;19972;-63
2022/11/14 12:44:55;;;;;;;;;;;10.00;99.90;;;;;;5052445;28;20078;-63
2022/11/14 12:47:23;;;;;;;;;;;9.90;99.90;;;;;;5052686;28;19968;-63
2022/11/14 12:50:01;;;;;;;;;;;9.90;99.90;;;;;;5045041;28;19964;-63
2022/11/14 12:52:44;;;;;;;;;;;9.90;99.90;;;;;;5053005;28;19968;-63
2022/11/14 12:55:30;;;;;;;;;;;9.80;99.90;;;;;;5052538;28;19967;-63
2022/11/14 12:58:02;;;;;;;;;;;9.70;99.90;;;;;;5038187;28;19972;-63
2022/11/14 13:00:30;;;;;;;;;;;9.60;99.90;;;;;;5049495;28;19969;-63
2022/11/14 13:03:17;;;;;;;;;;;9.60;99.90;;;;;;5052463;28;20544;-63
2022/11/14 13:05:53;;;;;;;;;;;9.60;99.90;;;;;;5052316;28;19990;-63
2022/11/14 13:08:38;;;;;;;;;;;9.60;99.90;;;;;;5052083;28;20003;-63
2022/11/14 13:21:44;;;;;;;;;;;9.60;99.90;;;;;;5051508;28;19979;-63
2022/11/14 13:22:39;;;;;;;;;;;9.40;99.90;;;;;;5051237;28;19971;-63
2022/11/14 13:25:19;;;;;;;;;;;9.40;99.90;;;;;;5050357;28;19968;-62
2022/11/14 13:27:47;;;;;;;;;;;9.50;99.90;;;;;;5050598;28;20050;-63
2022/11/14 13:30:54;;;;;;;;;;;9.50;99.90;;;;;;5046638;28;20987;-63
2022/11/14 13:33:36;;;;;;;;;;;9.50;99.90;;;;;;5048896;28;19972;-62
2022/11/14 13:36:05;;;;;;;;;;;9.50;99.90;;;;;;5050566;28;19968;-63
2022/11/14 13:38:51;;;;;;;;;;;9.50;99.90;;;;;;5050316;28;19968;-63
2022/11/14 13:41:36;;;;;;;;;;;9.50;99.90;;;;;;5049490;28;19975;-63
2022/11/14 13:47:00;;;;;;;;;;;9.70;99.90;;;;;;5028757;28;20018;-64
2022/11/14 13:49:39;;;;;;;;;;;9.70;99.90;;;;;;5030172;28;19978;-64
2022/11/14 13:52:07;;;;;;;;;;;9.70;99.90;;;;;;5031375;28;19969;-64
2022/11/14 13:54:35;;;;;;;;;;;9.80;99.90;;;;;;5031701;28;20445;-64
2022/11/14 13:57:06;;;;;;;;;;;9.70;99.90;;;;;;5031600;28;19975;-64
2022/11/14 13:59:54;;;;;;;;;;;9.70;99.90;;;;;;5030597;28;19974;-64
2022/11/14 14:02:35;;;;;;;;;;;9.70;99.90;;;;;;5026629;28;20357;-64
2022/11/14 14:05:10;;;;;;;;;;;9.70;99.90;;;;;;5018933;28;19968;-64
2022/11/14 14:07:47;;;;;;;;;;;9.60;99.90;;;;;;5031432;28;20010;-64
2022/11/14 14:10:22;;;;;;;;;;;9.60;99.90;;;;;;5029904;28;21312;-64
2022/11/14 14:12:58;;;;;;;;;;;9.60;99.90;;;;;;5031380;28;19964;-64
2022/11/14 14:15:28;;;;;;;;;;;9.70;99.90;;;;;;5031489;28;20002;-64
2022/11/14 14:18:04;;;;;;;;;;;9.70;99.90;;;;;;5030966;28;20003;-64
2022/11/14 14:20:37;;;;;;;;;;;9.70;99.90;;;;;;5030102;28;20007;-64
2022/11/14 14:23:12;;;;;;;;;;;9.80;99.90;;;;;;5030963;28;19964;-64
2022/11/14 14:25:43;;;;;;;;;;;9.70;99.90;;;;;;5031310;28;19968;-64
2022/11/14 14:28:15;;;;;;;;;;;9.90;99.90;;;;;;5031336;28;20341;-64
2022/11/14 14:30:58;;;;;;;;;;;10.00;99.90;;;;;;5029934;28;19968;-64
2022/11/14 14:33:28;;;;;;;;;;;10.10;99.90;;;;;;5031494;28;20082;-64
2022/11/14 14:35:56;;;;;;;;;;;10.10;99.90;;;;;;5030579;28;20023;-64
2022/11/14 14:38:25;;;;;;;;;;;10.20;99.90;;;;;;5030781;28;19982;-64
2022/11/14 14:40:54;;;;;;;;;;;10.10;99.90;;;;;;5030234;28;19995;-64
2022/11/14 14:43:24;;;;;;;;;;;10.20;99.90;;;;;;5030925;28;20360;-64
2022/11/14 14:45:52;;;;;;;;;;;10.10;99.90;;;;;;5030911;28;20004;-63
2022/11/14 14:48:23;;;;;;;;;;;10.10;99.90;;;;;;5030685;28;19968;-63
2022/11/14 14:50:53;;;;;;;;;;;10.10;99.90;;;;;;5031287;28;19987;-63
2022/11/14 14:53:21;;;;;;;;;;;10.10;99.90;;;;;;5034985;28;19979;-63
2022/11/14 14:55:53;;;;;;;;;;;10.10;99.90;;;;;;5034539;28;19972;-63
2022/11/14 14:58:25;;;;;;;;;;;10.20;99.90;;;;;;5035208;28;20502;-64
2022/11/14 15:00:55;;;;;;;;;;;10.20;99.90;;;;;;5033913;28;19975;-63
2022/11/14 15:03:24;;;;;;;;;;;10.20;99.90;;;;;;5034669;28;19968;-63
2022/11/14 15:05:59;;;;;;;;;;;10.30;99.90;;;;;;5034549;28;19968;-64